sensor_id;sensor_type;location;lat;lon;timestamp;P1;durP1;ratioP1;P2;durP2;ratioP2
61336;SDS011;47212;41.326;2.104;2022-09-23T00:02:34;9.10;;;3.10;;
61336;SDS011;47212;41.326;2.104;2022-09-23T00:07:37;6.03;;;3.00;;
61336;SDS011;47212;41.326;2.104;2022-09-23T00:12:39;4.80;;;2.95;;
61336;SDS011;47212;41.326;2.104;2022-09-23T00:17:41;7.70;;;2.83;;
61336;SDS011;47212;41.326;2.104;2022-09-23T00:22:49;10.20;;;4.07;;
61336;SDS011;47212;41.326;2.104;2022-09-23T00:28:02;10.38;;;3.22;;
61336;SDS011;47212;41.326;2.104;2022-09-23T00:33:04;7.43;;;3.00;;
61336;SDS011;47212;41.326;2.104;2022-09-23T00:38:05;6.15;;;2.85;;
61336;SDS011;47212;41.326;2.104;2022-09-23T00:43:10;5.70;;;2.78;;
61336;SDS011;47212;41.326;2.104;2022-09-23T00:48:16;8.85;;;3.20;;
61336;SDS011;47212;41.326;2.104;2022-09-23T00:53:21;4.40;;;2.42;;
61336;SDS011;47212;41.326;2.104;2022-09-23T00:58:31;5.03;;;2.50;;
61336;SDS011;47212;41.326;2.104;2022-09-23T01:03:35;4.00;;;2.33;;
61336;SDS011;47212;41.326;2.104;2022-09-23T01:08:38;8.15;;;3.08;;
61336;SDS011;47212;41.326;2.104;2022-09-23T01:33:21;6.38;;;3.10;;
61336;SDS011;47212;41.326;2.104;2022-09-23T01:38:38;7.65;;;3.08;;
61336;SDS011;47212;41.326;2.104;2022-09-23T01:44:10;6.90;;;2.50;;
61336;SDS011;47212;41.326;2.104;2022-09-23T01:49:18;6.63;;;2.80;;
61336;SDS011;47212;41.326;2.104;2022-09-23T01:54:31;11.75;;;4.10;;
61336;SDS011;47212;41.326;2.104;2022-09-23T01:59:40;10.52;;;3.20;;
61336;SDS011;47212;41.326;2.104;2022-09-23T02:04:55;7.72;;;3.40;;
61336;SDS011;47212;41.326;2.104;2022-09-23T02:10:09;9.80;;;3.95;;
61336;SDS011;47212;41.326;2.104;2022-09-23T02:15:13;11.73;;;4.20;;
61336;SDS011;47212;41.326;2.104;2022-09-23T02:20:25;9.90;;;4.40;;
61336;SDS011;47212;41.326;2.104;2022-09-23T02:25:34;8.45;;;4.20;;
61336;SDS011;47212;41.326;2.104;2022-09-23T02:30:52;10.60;;;5.63;;
61336;SDS011;47212;41.326;2.104;2022-09-23T02:36:16;13.27;;;5.15;;
61336;SDS011;47212;41.326;2.104;2022-09-23T02:41:52;11.63;;;5.20;;
61336;SDS011;47212;41.326;2.104;2022-09-23T02:47:06;13.55;;;5.25;;
61336;SDS011;47212;41.326;2.104;2022-09-23T02:52:08;8.57;;;4.40;;
61336;SDS011;47212;41.326;2.104;2022-09-23T02:57:12;12.02;;;4.93;;
61336;SDS011;47212;41.326;2.104;2022-09-23T03:02:26;9.18;;;4.30;;
61336;SDS011;47212;41.326;2.104;2022-09-23T03:13:32;11.05;;;3.47;;
61336;SDS011;47212;41.326;2.104;2022-09-23T03:19:10;9.65;;;3.60;;
61336;SDS011;47212;41.326;2.104;2022-09-23T03:24:35;9.15;;;3.72;;
61336;SDS011;47212;41.326;2.104;2022-09-23T03:29:42;6.07;;;3.10;;
61336;SDS011;47212;41.326;2.104;2022-09-23T03:34:59;8.88;;;3.22;;
61336;SDS011;47212;41.326;2.104;2022-09-23T03:45:21;8.07;;;3.63;;
61336;SDS011;47212;41.326;2.104;2022-09-23T03:50:42;11.50;;;3.38;;
61336;SDS011;47212;41.326;2.104;2022-09-23T03:55:47;7.72;;;3.00;;
61336;SDS011;47212;41.326;2.104;2022-09-23T04:00:52;9.77;;;3.28;;
61336;SDS011;47212;41.326;2.104;2022-09-23T04:06:00;8.60;;;2.83;;
61336;SDS011;47212;41.326;2.104;2022-09-23T04:11:06;10.13;;;3.45;;
61336;SDS011;47212;41.326;2.104;2022-09-23T04:16:20;9.13;;;3.60;;
61336;SDS011;47212;41.326;2.104;2022-09-23T04:21:27;9.88;;;3.97;;
61336;SDS011;47212;41.326;2.104;2022-09-23T04:27:22;9.18;;;3.65;;
61336;SDS011;47212;41.326;2.104;2022-09-23T04:32:25;9.38;;;3.55;;
61336;SDS011;47212;41.326;2.104;2022-09-23T04:37:28;10.15;;;4.07;;
61336;SDS011;47212;41.326;2.104;2022-09-23T04:42:35;9.77;;;3.90;;
61336;SDS011;47212;41.326;2.104;2022-09-23T04:47:39;9.73;;;3.90;;
61336;SDS011;47212;41.326;2.104;2022-09-23T04:52:42;12.15;;;4.13;;
61336;SDS011;47212;41.326;2.104;2022-09-23T04:57:45;8.05;;;3.63;;
61336;SDS011;47212;41.326;2.104;2022-09-23T05:03:39;7.67;;;3.43;;
61336;SDS011;47212;41.326;2.104;2022-09-23T05:08:53;8.88;;;3.70;;
61336;SDS011;47212;41.326;2.104;2022-09-23T05:13:59;8.10;;;3.35;;
61336;SDS011;47212;41.326;2.104;2022-09-23T05:19:16;8.27;;;3.50;;
61336;SDS011;47212;41.326;2.104;2022-09-23T05:25:17;6.22;;;3.13;;
61336;SDS011;47212;41.326;2.104;2022-09-23T05:30:28;7.95;;;3.13;;
61336;SDS011;47212;41.326;2.104;2022-09-23T05:35:44;7.90;;;3.08;;
61336;SDS011;47212;41.326;2.104;2022-09-23T05:40:59;7.85;;;3.20;;
61336;SDS011;47212;41.326;2.104;2022-09-23T05:46:10;7.70;;;3.67;;
61336;SDS011;47212;41.326;2.104;2022-09-23T05:51:24;8.23;;;3.53;;
61336;SDS011;47212;41.326;2.104;2022-09-23T05:56:32;12.30;;;3.65;;
61336;SDS011;47212;41.326;2.104;2022-09-23T06:01:37;6.65;;;3.22;;
61336;SDS011;47212;41.326;2.104;2022-09-23T06:06:42;7.13;;;3.45;;
61336;SDS011;47212;41.326;2.104;2022-09-23T06:11:48;9.02;;;4.07;;
61336;SDS011;47212;41.326;2.104;2022-09-23T06:16:51;8.95;;;3.92;;
61336;SDS011;47212;41.326;2.104;2022-09-23T06:21:56;12.85;;;4.35;;
61336;SDS011;47212;41.326;2.104;2022-09-23T06:26:59;15.07;;;4.63;;
61336;SDS011;47212;41.326;2.104;2022-09-23T06:32:04;10.52;;;4.32;;
61336;SDS011;47212;41.326;2.104;2022-09-23T06:37:08;14.73;;;4.95;;
61336;SDS011;47212;41.326;2.104;2022-09-23T06:42:20;9.48;;;3.35;;
61336;SDS011;47212;41.326;2.104;2022-09-23T06:47:30;6.63;;;3.88;;
61336;SDS011;47212;41.326;2.104;2022-09-23T06:52:33;17.73;;;5.35;;
61336;SDS011;47212;41.326;2.104;2022-09-23T06:57:37;11.13;;;3.75;;
61336;SDS011;47212;41.326;2.104;2022-09-23T07:02:40;9.38;;;3.85;;
61336;SDS011;47212;41.326;2.104;2022-09-23T07:07:47;10.15;;;3.30;;
61336;SDS011;47212;41.326;2.104;2022-09-23T07:12:51;8.15;;;3.33;;
61336;SDS011;47212;41.326;2.104;2022-09-23T07:17:54;13.00;;;3.45;;
61336;SDS011;47212;41.326;2.104;2022-09-23T07:22:56;8.00;;;3.42;;
61336;SDS011;47212;41.326;2.104;2022-09-23T07:28:01;8.80;;;3.30;;
61336;SDS011;47212;41.326;2.104;2022-09-23T07:33:10;9.07;;;3.47;;
61336;SDS011;47212;41.326;2.104;2022-09-23T07:38:32;12.60;;;3.42;;
61336;SDS011;47212;41.326;2.104;2022-09-23T07:43:41;10.02;;;3.40;;
61336;SDS011;47212;41.326;2.104;2022-09-23T07:48:47;8.52;;;3.13;;
61336;SDS011;47212;41.326;2.104;2022-09-23T07:53:51;9.63;;;3.30;;
61336;SDS011;47212;41.326;2.104;2022-09-23T07:58:56;6.93;;;3.05;;
61336;SDS011;47212;41.326;2.104;2022-09-23T08:04:13;10.82;;;3.63;;
61336;SDS011;47212;41.326;2.104;2022-09-23T08:09:25;6.35;;;2.78;;
61336;SDS011;47212;41.326;2.104;2022-09-23T08:14:29;7.13;;;3.15;;
61336;SDS011;47212;41.326;2.104;2022-09-23T08:19:35;7.85;;;3.45;;
61336;SDS011;47212;41.326;2.104;2022-09-23T08:30:36;10.85;;;3.20;;
61336;SDS011;47212;41.326;2.104;2022-09-23T08:35:42;8.63;;;3.85;;
61336;SDS011;47212;41.326;2.104;2022-09-23T08:41:10;13.23;;;3.35;;
61336;SDS011;47212;41.326;2.104;2022-09-23T08:46:45;7.35;;;2.70;;
61336;SDS011;47212;41.326;2.104;2022-09-23T08:51:53;13.05;;;3.58;;
61336;SDS011;47212;41.326;2.104;2022-09-23T08:56:59;9.77;;;3.10;;
61336;SDS011;47212;41.326;2.104;2022-09-23T09:02:20;10.15;;;3.10;;
61336;SDS011;47212;41.326;2.104;2022-09-23T09:07:32;11.80;;;2.80;;
61336;SDS011;47212;41.326;2.104;2022-09-23T09:12:49;5.65;;;2.28;;
61336;SDS011;47212;41.326;2.104;2022-09-23T09:23:47;3.65;;;1.45;;
61336;SDS011;47212;41.326;2.104;2022-09-23T09:34:38;4.93;;;2.00;;
61336;SDS011;47212;41.326;2.104;2022-09-23T09:39:48;8.15;;;2.30;;
61336;SDS011;47212;41.326;2.104;2022-09-23T09:45:00;7.18;;;1.95;;
61336;SDS011;47212;41.326;2.104;2022-09-23T09:50:15;3.58;;;2.05;;
61336;SDS011;47212;41.326;2.104;2022-09-23T09:55:44;5.65;;;2.03;;
61336;SDS011;47212;41.326;2.104;2022-09-23T10:06:27;6.43;;;2.25;;
61336;SDS011;47212;41.326;2.104;2022-09-23T10:11:40;7.85;;;2.22;;
61336;SDS011;47212;41.326;2.104;2022-09-23T10:16:45;11.93;;;2.42;;
61336;SDS011;47212;41.326;2.104;2022-09-23T10:22:39;3.72;;;1.60;;
61336;SDS011;47212;41.326;2.104;2022-09-23T10:27:46;4.20;;;1.77;;
61336;SDS011;47212;41.326;2.104;2022-09-23T10:32:51;4.60;;;2.15;;
61336;SDS011;47212;41.326;2.104;2022-09-23T10:38:00;5.70;;;2.28;;
61336;SDS011;47212;41.326;2.104;2022-09-23T10:43:27;6.57;;;2.28;;
61336;SDS011;47212;41.326;2.104;2022-09-23T11:05:24;4.60;;;2.15;;
61336;SDS011;47212;41.326;2.104;2022-09-23T11:38:41;8.00;;;2.10;;
61336;SDS011;47212;41.326;2.104;2022-09-23T11:43:58;4.00;;;1.80;;
61336;SDS011;47212;41.326;2.104;2022-09-23T11:59:53;4.85;;;2.20;;
61336;SDS011;47212;41.326;2.104;2022-09-23T12:05:18;8.00;;;2.05;;
61336;SDS011;47212;41.326;2.104;2022-09-23T12:28:17;3.80;;;2.30;;
61336;SDS011;47212;41.326;2.104;2022-09-23T12:33:30;5.15;;;1.85;;
61336;SDS011;47212;41.326;2.104;2022-09-23T12:38:37;5.13;;;2.00;;
61336;SDS011;47212;41.326;2.104;2022-09-23T12:49:01;7.68;;;1.80;;
61336;SDS011;47212;41.326;2.104;2022-09-23T12:54:19;3.72;;;2.00;;
61336;SDS011;47212;41.326;2.104;2022-09-23T13:26:54;3.13;;;1.80;;
61336;SDS011;47212;41.326;2.104;2022-09-23T13:32:27;4.95;;;1.75;;
61336;SDS011;47212;41.326;2.104;2022-09-23T13:37:45;5.85;;;1.70;;
61336;SDS011;47212;41.326;2.104;2022-09-23T13:48:28;4.10;;;1.60;;
61336;SDS011;47212;41.326;2.104;2022-09-23T13:54:03;2.83;;;1.70;;
61336;SDS011;47212;41.326;2.104;2022-09-23T13:59:40;4.43;;;1.88;;
61336;SDS011;47212;41.326;2.104;2022-09-23T14:04:45;2.97;;;1.65;;
61336;SDS011;47212;41.326;2.104;2022-09-23T14:09:53;4.97;;;1.65;;
61336;SDS011;47212;41.326;2.104;2022-09-23T14:14:58;4.75;;;2.00;;
61336;SDS011;47212;41.326;2.104;2022-09-23T14:20:11;5.32;;;2.03;;
61336;SDS011;47212;41.326;2.104;2022-09-23T14:25:40;2.75;;;1.60;;
61336;SDS011;47212;41.326;2.104;2022-09-23T14:30:50;6.82;;;1.80;;
61336;SDS011;47212;41.326;2.104;2022-09-23T14:36:07;3.83;;;1.65;;
61336;SDS011;47212;41.326;2.104;2022-09-23T14:41:39;3.40;;;1.63;;
61336;SDS011;47212;41.326;2.104;2022-09-23T14:46:49;6.28;;;2.00;;
61336;SDS011;47212;41.326;2.104;2022-09-23T14:52:14;2.40;;;1.50;;
61336;SDS011;47212;41.326;2.104;2022-09-23T14:57:26;3.13;;;1.58;;
61336;SDS011;47212;41.326;2.104;2022-09-23T15:02:44;4.90;;;2.15;;
61336;SDS011;47212;41.326;2.104;2022-09-23T15:07:59;5.43;;;2.00;;
61336;SDS011;47212;41.326;2.104;2022-09-23T15:13:08;4.40;;;2.13;;
61336;SDS011;47212;41.326;2.104;2022-09-23T15:18:21;3.17;;;1.80;;
61336;SDS011;47212;41.326;2.104;2022-09-23T15:23:54;3.22;;;1.65;;
61336;SDS011;47212;41.326;2.104;2022-09-23T15:28:59;3.72;;;1.58;;
61336;SDS011;47212;41.326;2.104;2022-09-23T15:34:04;4.60;;;1.75;;
61336;SDS011;47212;41.326;2.104;2022-09-23T15:39:21;4.53;;;1.67;;
61336;SDS011;47212;41.326;2.104;2022-09-23T15:44:39;6.35;;;1.98;;
61336;SDS011;47212;41.326;2.104;2022-09-23T15:49:47;4.05;;;1.60;;
61336;SDS011;47212;41.326;2.104;2022-09-23T15:54:54;3.28;;;1.50;;
61336;SDS011;47212;41.326;2.104;2022-09-23T15:59:59;2.45;;;1.60;;
61336;SDS011;47212;41.326;2.104;2022-09-23T16:05:47;3.28;;;1.67;;
61336;SDS011;47212;41.326;2.104;2022-09-23T16:10:56;3.95;;;1.98;;
61336;SDS011;47212;41.326;2.104;2022-09-23T16:16:04;6.63;;;2.25;;
61336;SDS011;47212;41.326;2.104;2022-09-23T16:21:10;5.57;;;2.20;;
61336;SDS011;47212;41.326;2.104;2022-09-23T16:27:09;3.67;;;1.80;;
61336;SDS011;47212;41.326;2.104;2022-09-23T16:32:19;3.35;;;1.65;;
61336;SDS011;47212;41.326;2.104;2022-09-23T16:37:29;8.73;;;1.95;;
61336;SDS011;47212;41.326;2.104;2022-09-23T16:42:39;5.90;;;1.80;;
61336;SDS011;47212;41.326;2.104;2022-09-23T16:47:48;7.35;;;2.30;;
61336;SDS011;47212;41.326;2.104;2022-09-23T16:52:55;3.83;;;2.22;;
61336;SDS011;47212;41.326;2.104;2022-09-23T16:57:57;5.47;;;2.25;;
61336;SDS011;47212;41.326;2.104;2022-09-23T17:03:03;2.97;;;1.75;;
61336;SDS011;47212;41.326;2.104;2022-09-23T17:08:28;4.13;;;1.98;;
61336;SDS011;47212;41.326;2.104;2022-09-23T17:13:32;5.78;;;2.25;;
61336;SDS011;47212;41.326;2.104;2022-09-23T17:18:41;5.78;;;2.30;;
61336;SDS011;47212;41.326;2.104;2022-09-23T17:23:45;4.75;;;1.90;;
61336;SDS011;47212;41.326;2.104;2022-09-23T17:28:48;4.22;;;1.83;;
61336;SDS011;47212;41.326;2.104;2022-09-23T17:34:05;4.28;;;2.00;;
61336;SDS011;47212;41.326;2.104;2022-09-23T17:39:12;8.68;;;2.55;;
61336;SDS011;47212;41.326;2.104;2022-09-23T17:44:17;3.78;;;1.90;;
61336;SDS011;47212;41.326;2.104;2022-09-23T17:49:23;5.35;;;2.50;;
61336;SDS011;47212;41.326;2.104;2022-09-23T17:54:30;5.85;;;2.53;;
61336;SDS011;47212;41.326;2.104;2022-09-23T17:59:45;3.78;;;2.10;;
61336;SDS011;47212;41.326;2.104;2022-09-23T18:04:57;5.13;;;2.40;;
61336;SDS011;47212;41.326;2.104;2022-09-23T18:10:06;5.40;;;2.40;;
61336;SDS011;47212;41.326;2.104;2022-09-23T18:15:12;9.27;;;3.20;;
61336;SDS011;47212;41.326;2.104;2022-09-23T18:20:21;6.97;;;3.15;;
61336;SDS011;47212;41.326;2.104;2022-09-23T18:25:32;7.25;;;2.88;;
61336;SDS011;47212;41.326;2.104;2022-09-23T18:30:50;5.63;;;2.45;;
61336;SDS011;47212;41.326;2.104;2022-09-23T18:36:03;5.03;;;2.10;;
61336;SDS011;47212;41.326;2.104;2022-09-23T18:41:12;7.80;;;2.78;;
61336;SDS011;47212;41.326;2.104;2022-09-23T18:46:27;6.38;;;2.65;;
61336;SDS011;47212;41.326;2.104;2022-09-23T18:51:49;4.70;;;2.20;;
61336;SDS011;47212;41.326;2.104;2022-09-23T18:56:57;5.18;;;2.53;;
61336;SDS011;47212;41.326;2.104;2022-09-23T19:02:06;7.57;;;3.00;;
61336;SDS011;47212;41.326;2.104;2022-09-23T19:07:12;7.43;;;2.38;;
61336;SDS011;47212;41.326;2.104;2022-09-23T19:12:21;7.20;;;2.50;;
61336;SDS011;47212;41.326;2.104;2022-09-23T19:17:27;4.18;;;2.20;;
61336;SDS011;47212;41.326;2.104;2022-09-23T19:22:37;7.15;;;2.60;;
61336;SDS011;47212;41.326;2.104;2022-09-23T19:27:43;6.03;;;2.40;;
61336;SDS011;47212;41.326;2.104;2022-09-23T19:32:45;9.00;;;2.50;;
61336;SDS011;47212;41.326;2.104;2022-09-23T19:37:53;9.10;;;2.60;;
61336;SDS011;47212;41.326;2.104;2022-09-23T19:42:58;4.93;;;2.28;;
61336;SDS011;47212;41.326;2.104;2022-09-23T19:48:03;5.70;;;2.30;;
61336;SDS011;47212;41.326;2.104;2022-09-23T19:53:09;10.80;;;3.08;;
61336;SDS011;47212;41.326;2.104;2022-09-23T19:58:16;7.43;;;2.83;;
61336;SDS011;47212;41.326;2.104;2022-09-23T20:03:22;13.52;;;2.70;;
61336;SDS011;47212;41.326;2.104;2022-09-23T20:08:27;5.93;;;2.38;;
61336;SDS011;47212;41.326;2.104;2022-09-23T20:13:31;7.88;;;3.10;;
61336;SDS011;47212;41.326;2.104;2022-09-23T20:18:37;11.88;;;3.10;;
61336;SDS011;47212;41.326;2.104;2022-09-23T20:23:39;9.48;;;2.88;;
61336;SDS011;47212;41.326;2.104;2022-09-23T20:28:44;10.95;;;3.72;;
61336;SDS011;47212;41.326;2.104;2022-09-23T20:33:49;12.68;;;4.22;;
61336;SDS011;47212;41.326;2.104;2022-09-23T20:38:55;11.63;;;3.70;;
61336;SDS011;47212;41.326;2.104;2022-09-23T20:44:11;10.52;;;3.22;;
61336;SDS011;47212;41.326;2.104;2022-09-23T20:49:25;13.05;;;3.22;;
61336;SDS011;47212;41.326;2.104;2022-09-23T20:54:30;11.73;;;3.20;;
61336;SDS011;47212;41.326;2.104;2022-09-23T20:59:39;14.75;;;3.53;;
61336;SDS011;47212;41.326;2.104;2022-09-23T21:04:56;12.23;;;3.00;;
61336;SDS011;47212;41.326;2.104;2022-09-23T21:10:09;10.57;;;3.10;;
61336;SDS011;47212;41.326;2.104;2022-09-23T21:15:21;11.75;;;2.97;;
61336;SDS011;47212;41.326;2.104;2022-09-23T21:20:35;6.60;;;2.78;;
61336;SDS011;47212;41.326;2.104;2022-09-23T21:25:41;7.53;;;2.75;;
61336;SDS011;47212;41.326;2.104;2022-09-23T21:30:46;12.43;;;3.17;;
61336;SDS011;47212;41.326;2.104;2022-09-23T21:35:53;8.23;;;2.75;;
61336;SDS011;47212;41.326;2.104;2022-09-23T21:40:58;9.38;;;3.28;;
61336;SDS011;47212;41.326;2.104;2022-09-23T21:46:04;11.43;;;3.15;;
61336;SDS011;47212;41.326;2.104;2022-09-23T21:51:12;8.00;;;2.85;;
61336;SDS011;47212;41.326;2.104;2022-09-23T21:56:21;8.30;;;3.00;;
61336;SDS011;47212;41.326;2.104;2022-09-23T22:01:32;3.95;;;2.42;;
61336;SDS011;47212;41.326;2.104;2022-09-23T22:06:44;5.68;;;2.40;;
61336;SDS011;47212;41.326;2.104;2022-09-23T22:11:51;4.68;;;2.80;;
61336;SDS011;47212;41.326;2.104;2022-09-23T22:17:16;6.43;;;2.30;;
61336;SDS011;47212;41.326;2.104;2022-09-23T22:22:24;9.95;;;2.85;;
61336;SDS011;47212;41.326;2.104;2022-09-23T22:27:36;6.40;;;2.45;;
61336;SDS011;47212;41.326;2.104;2022-09-23T22:33:07;5.78;;;2.65;;
61336;SDS011;47212;41.326;2.104;2022-09-23T22:38:10;5.15;;;2.30;;
61336;SDS011;47212;41.326;2.104;2022-09-23T22:43:19;6.30;;;2.47;;
61336;SDS011;47212;41.326;2.104;2022-09-23T22:48:29;5.70;;;2.22;;
61336;SDS011;47212;41.326;2.104;2022-09-23T22:53:34;5.00;;;2.50;;
61336;SDS011;47212;41.326;2.104;2022-09-23T22:58:46;4.57;;;2.03;;
61336;SDS011;47212;41.326;2.104;2022-09-23T23:03:53;3.58;;;1.90;;
61336;SDS011;47212;41.326;2.104;2022-09-23T23:08:57;11.43;;;2.70;;
61336;SDS011;47212;41.326;2.104;2022-09-23T23:14:01;11.30;;;2.53;;
61336;SDS011;47212;41.326;2.104;2022-09-23T23:19:09;7.75;;;2.40;;
61336;SDS011;47212;41.326;2.104;2022-09-23T23:24:17;10.27;;;2.72;;
61336;SDS011;47212;41.326;2.104;2022-09-23T23:29:21;6.93;;;2.08;;
61336;SDS011;47212;41.326;2.104;2022-09-23T23:34:26;10.82;;;2.25;;
61336;SDS011;47212;41.326;2.104;2022-09-23T23:39:33;5.85;;;2.22;;
61336;SDS011;47212;41.326;2.104;2022-09-23T23:44:40;6.80;;;1.70;;
61336;SDS011;47212;41.326;2.104;2022-09-23T23:49:44;6.43;;;2.20;;
61336;SDS011;47212;41.326;2.104;2022-09-23T23:54:51;10.65;;;2.90;;
